Time;durP1;ratioP1;P1;durP2;ratioP2;P2;SDS_P1;SDS_P2;PMS_P1;PMS_P2;Temp;Humidity;BMP_temperature;BMP_pressure;BME280_temperature;BME280_humidity;BME280_pressure;Samples;Min_cycle;Max_cycle;Signal;HPM_P1;HPM_P2
2020/12/21 00:01:52;;;;;;;13.38;8.95;;;4.20;84.50;;;3.26;68.60;95610.66;5058430;28;20222;-80
2020/12/21 00:04:20;;;;;;;13.32;8.25;;;4.20;84.50;;;3.28;69.16;95606.19;5057626;28;20214;-80
2020/12/21 00:06:59;;;;;;;13.98;8.30;;;4.20;84.50;;;3.28;68.76;95601.78;5070005;28;20195;-80
2020/12/21 00:09:26;;;;;;;14.95;9.07;;;4.20;84.40;;;3.25;68.71;95599.47;5053932;28;20229;-80
2020/12/21 00:11:53;;;;;;;17.63;9.48;;;4.20;84.50;;;3.23;68.94;95596.19;5067128;28;20199;-80
2020/12/21 00:14:20;;;;;;;13.75;8.63;;;4.20;84.70;;;3.25;69.00;95601.22;5065747;28;20218;-80
2020/12/21 00:16:50;;;;;;;15.10;8.50;;;4.20;84.50;;;3.29;68.85;95608.63;5090589;28;20285;-80
2020/12/21 00:19:20;;;;;;;15.43;8.63;;;4.20;84.50;;;3.30;68.86;95617.25;5074377;28;20309;-81
2020/12/21 00:21:51;;;;;;;14.30;8.88;;;4.20;85.30;;;3.31;68.90;95613.72;5090494;28;20307;-80
2020/12/21 00:24:22;;;;;;;13.93;8.57;;;4.20;84.50;;;3.30;68.94;95615.47;5073260;28;20207;-80
2020/12/21 00:26:52;;;;;;;15.52;9.55;;;4.20;84.60;;;3.30;68.72;95609.47;5073733;28;20274;-79
2020/12/21 00:29:20;;;;;;;13.82;9.15;;;4.20;84.60;;;3.31;68.76;95613.72;5053965;28;20732;-81
2020/12/21 00:31:48;;;;;;;15.88;8.68;;;4.20;84.60;;;3.34;69.13;95610.84;5070663;28;20249;-80
2020/12/21 00:34:16;;;;;;;14.93;8.80;;;4.20;84.60;;;3.33;68.82;95609.19;5055955;28;20379;-80
2020/12/21 00:36:50;;;;;;;16.48;9.73;;;4.20;84.50;;;3.30;68.74;95612.88;5058082;28;20207;-80
2020/12/21 00:39:18;;;;;;;15.93;9.20;;;4.20;84.40;;;3.32;68.73;95623.94;5060632;28;20309;-79
2020/12/21 00:41:45;;;;;;;19.23;9.70;;;4.20;84.50;;;3.30;68.49;95623.25;5060790;28;20772;-80
2020/12/21 00:44:14;;;;;;;15.80;9.82;;;4.20;84.40;;;3.29;68.41;95631.16;5076629;28;20280;-80
2020/12/21 00:46:41;;;;;;;15.38;9.43;;;4.20;84.30;;;3.28;68.86;95624.31;5094225;28;20211;-79
2020/12/21 00:49:08;;;;;;;15.38;9.23;;;4.20;84.40;;;3.25;68.91;95628.00;5076977;28;20218;-80
2020/12/21 00:51:36;;;;;;;14.85;8.77;;;4.20;84.40;;;3.26;68.69;95627.06;5077453;28;20190;-79
2020/12/21 00:54:03;;;;;;;18.13;9.88;;;4.20;84.40;;;3.27;68.94;95627.88;5056823;28;20272;-78
2020/12/21 00:56:30;;;;;;;16.50;9.75;;;4.20;84.40;;;3.25;68.92;95628.00;5093262;28;20570;-80
2020/12/21 00:58:57;;;;;;;14.07;8.82;;;4.20;84.40;;;3.24;68.83;95628.94;5076350;28;21022;-80
2020/12/21 01:01:28;;;;;;;22.35;9.95;;;4.20;85.20;;;3.25;68.74;95625.41;5077069;28;20237;-80
2020/12/21 01:04:03;;;;;;;20.30;9.93;;;4.20;84.40;;;3.26;69.12;95626.22;5061456;28;20300;-81
2020/12/21 01:06:34;;;;;;;16.98;8.85;;;4.20;84.40;;;3.27;69.08;95626.09;5060711;28;20252;-80
2020/12/21 01:09:02;;;;;;;19.77;10.02;;;4.20;84.50;;;3.29;68.76;95639.75;5076369;28;20215;-79
2020/12/21 01:11:29;;;;;;;16.20;9.02;;;4.20;84.50;;;3.30;68.93;95648.34;5076724;28;20195;-80
2020/12/21 01:13:57;;;;;;;15.15;9.07;;;4.20;84.60;;;3.30;68.74;95649.16;5076513;28;20207;-80
2020/12/21 01:16:24;;;;;;;14.40;8.65;;;4.20;84.50;;;3.33;68.93;95646.34;5093085;28;20210;-80
2020/12/21 01:18:51;;;;;;;16.23;9.48;;;4.20;84.60;;;3.32;68.88;95639.50;5076565;28;20203;-79
2020/12/21 01:21:29;;;;;;;15.40;8.73;;;4.20;84.60;;;3.34;68.69;95652.31;5093408;28;20223;-80
2020/12/21 01:23:57;;;;;;;16.90;9.45;;;4.20;84.50;;;3.34;68.70;95657.50;5076117;28;20199;-80
2020/12/21 01:26:26;;;;;;;16.80;8.95;;;4.20;84.50;;;3.34;68.92;95657.50;5093102;28;20203;-80
2020/12/21 01:28:53;;;;;;;15.23;8.82;;;4.20;84.50;;;3.34;68.86;95653.16;5092715;28;20206;-80
2020/12/21 01:31:21;;;;;;;15.88;9.27;;;4.20;84.60;;;3.35;68.95;95661.75;5093454;28;20187;-80
2020/12/21 01:33:50;;;;;;;16.30;9.60;;;4.20;84.50;;;3.35;68.74;95667.75;5074718;28;20202;-79
2020/12/21 01:36:20;;;;;;;16.70;9.90;;;4.30;84.50;;;3.35;68.76;95672.94;5092709;28;20230;-81
2020/12/21 01:38:47;;;;;;;15.68;9.13;;;4.30;84.40;;;3.35;68.54;95674.72;5076678;28;20229;-80
2020/12/21 01:41:14;;;;;;;19.98;10.27;;;4.40;85.30;;;3.34;68.78;95678.25;5076433;28;20226;-79
2020/12/21 01:43:42;;;;;;;16.63;9.48;;;4.30;84.40;;;3.33;68.68;95677.44;5091557;28;20210;-78
2020/12/21 01:46:13;;;;;;;18.33;9.65;;;4.20;84.30;;;3.31;68.46;95681.13;5076218;28;20740;-79
2020/12/21 01:48:44;;;;;;;17.20;9.63;;;4.30;84.30;;;3.29;68.77;95680.41;5092495;28;20214;-80
2020/12/21 01:51:26;;;;;;;16.55;10.20;;;4.20;84.30;;;3.25;68.65;95682.44;5055634;28;20192;-79
2020/12/21 01:53:55;;;;;;;16.42;9.50;;;4.20;84.20;;;3.25;68.70;95679.84;5056031;28;20202;-80
2020/12/21 01:56:23;;;;;;;16.60;9.10;;;4.30;84.30;;;3.24;68.90;95677.38;5101843;28;20725;-80
2020/12/21 01:58:50;;;;;;;16.52;8.55;;;4.20;84.30;;;3.25;68.55;95682.44;5055231;28;20320;-80
2020/12/21 02:01:19;;;;;;;14.35;9.10;;;4.20;84.30;;;3.25;68.67;95687.63;5075520;28;20297;-80
2020/12/21 02:03:48;;;;;;;16.33;9.38;;;4.20;84.30;;;3.25;68.97;95687.63;5076060;28;20186;-80
2020/12/21 02:06:18;;;;;;;15.45;9.57;;;4.20;84.30;;;3.25;68.95;95686.78;5076001;28;20552;-79
2020/12/21 02:08:46;;;;;;;16.92;9.98;;;4.20;84.40;;;3.24;68.77;95695.53;5076127;28;20659;-80
2020/12/21 02:11:13;;;;;;;17.55;9.88;;;4.20;84.40;;;3.22;68.56;95680.09;5075482;28;20199;-80
2020/12/21 02:13:41;;;;;;;15.80;8.73;;;4.20;84.40;;;3.22;68.93;95680.09;5055836;28;20265;-80
2020/12/21 02:16:14;;;;;;;15.68;8.77;;;4.20;84.30;;;3.23;68.61;95681.75;5072184;28;20234;-80
2020/12/21 02:18:42;;;;;;;14.93;8.10;;;4.20;84.40;;;3.24;68.84;95685.97;5056438;28;20195;-80
2020/12/21 02:21:09;;;;;;;15.75;8.32;;;4.20;84.40;;;3.25;68.77;95682.44;5061711;28;20223;-80
2020/12/21 02:23:36;;;;;;;18.10;10.20;;;4.20;84.50;;;3.28;69.00;95686.53;5055480;28;20203;-80
2020/12/21 02:26:04;;;;;;;17.08;9.57;;;4.20;84.40;;;3.29;68.76;95681.22;5055706;28;20219;-80
2020/12/21 02:28:31;;;;;;;18.00;9.90;;;4.20;84.50;;;3.28;68.99;95676.97;5054784;28;20263;-80
2020/12/21 02:30:57;;;;;;;15.98;9.15;;;4.20;84.50;;;3.30;69.07;95677.69;5056989;28;20247;-78
2020/12/21 02:33:24;;;;;;;17.92;9.27;;;4.20;85.30;;;3.34;68.61;95684.28;5075458;28;20197;-80
2020/12/21 02:35:51;;;;;;;15.70;8.65;;;4.20;84.50;;;3.33;68.72;95677.44;5057862;28;20591;-79
2020/12/21 02:38:18;;;;;;;16.13;9.43;;;4.20;84.50;;;3.32;68.83;95678.38;5075322;28;20232;-80
2020/12/21 02:40:48;;;;;;;17.50;9.90;;;4.20;84.50;;;3.34;68.75;95678.25;5091796;28;20231;-80
2020/12/21 02:43:20;;;;;;;16.98;9.52;;;4.20;84.40;;;3.32;68.38;95675.78;5088222;28;20289;-80
2020/12/21 02:45:47;;;;;;;18.05;9.85;;;4.20;84.40;;;3.32;68.70;95674.97;5091683;28;20241;-80
2020/12/21 02:48:14;;;;;;;16.35;9.52;;;4.20;84.30;;;3.31;68.58;95679.34;5091858;28;20190;-80
2020/12/21 02:50:41;;;;;;;18.55;9.30;;;4.20;84.40;;;3.31;68.65;95681.13;5091726;28;20294;-80
2020/12/21 02:53:09;;;;;;;14.40;8.43;;;4.20;84.30;;;3.30;68.77;95680.28;5092638;28;20195;-80
2020/12/21 02:55:36;;;;;;;15.90;9.10;;;4.20;84.30;;;3.31;68.87;95681.13;5073443;28;20588;-80
2020/12/21 02:58:05;;;;;;;18.08;9.13;;;4.20;84.30;;;3.28;68.86;95671.81;5074964;28;20236;-80
2020/12/21 03:00:36;;;;;;;16.33;9.20;;;4.20;84.30;;;3.31;68.72;95681.13;5090492;28;20228;-80
2020/12/21 03:03:05;;;;;;;19.20;9.48;;;4.20;84.30;;;3.31;68.23;95684.53;5075113;28;20191;-80
2020/12/21 03:05:33;;;;;;;18.77;9.95;;;4.20;84.30;;;3.31;68.61;95679.34;5091369;28;20283;-80
2020/12/21 03:08:04;;;;;;;16.85;9.43;;;4.20;84.30;;;3.26;68.85;95663.34;5058183;28;20198;-80
2020/12/21 03:10:33;;;;;;;15.63;8.93;;;4.20;84.40;;;3.31;68.80;95662.97;5057859;28;20305;-80
2020/12/21 03:13:00;;;;;;;16.35;9.25;;;4.20;84.40;;;3.34;69.04;95673.91;5055635;28;20569;-79
2020/12/21 03:15:29;;;;;;;15.77;8.80;;;4.20;84.40;;;3.35;68.81;95665.16;5060039;28;20221;-80
2020/12/21 03:17:56;;;;;;;16.52;9.73;;;4.30;84.50;;;3.29;68.73;95655.28;5087427;28;20191;-80
2020/12/21 03:20:23;;;;;;;17.08;9.15;;;4.30;84.50;;;3.36;68.93;95666.00;5087671;28;20217;-80
2020/12/21 03:22:49;;;;;;;18.67;10.57;;;4.30;84.50;;;3.36;68.71;95668.59;5092345;28;20198;-80
2020/12/21 03:25:17;;;;;;;18.98;9.95;;;4.30;84.40;;;3.36;68.98;95669.41;5074467;28;20218;-80
2020/12/21 03:27:45;;;;;;;16.40;9.52;;;4.30;84.40;;;3.34;68.70;95670.47;5090686;28;20278;-80
2020/12/21 03:30:12;;;;;;;16.52;9.38;;;4.30;84.40;;;3.32;68.63;95674.97;5058096;28;20226;-79
2020/12/21 03:32:39;;;;;;;18.13;9.88;;;4.30;84.30;;;3.32;68.63;95687.91;5057840;28;20727;-80
2020/12/21 03:35:23;;;;;;;16.98;8.57;;;4.30;84.30;;;3.32;68.59;95685.31;5062252;28;20698;-79
2020/12/21 03:37:50;;;;;;;16.48;9.15;;;4.30;84.30;;;3.29;68.78;95677.81;5074776;28;20309;-80
2020/12/21 03:40:17;;;;;;;17.58;9.15;;;4.30;84.30;;;3.30;68.53;95679.47;5057668;28;20339;-79
2020/12/21 03:42:44;;;;;;;16.95;10.00;;;4.30;84.30;;;3.28;68.81;95671.00;5073315;28;20194;-78
2020/12/21 03:45:11;;;;;;;13.35;8.52;;;4.30;84.20;;;3.29;68.49;95672.63;5053167;28;20222;-80
2020/12/21 03:47:38;;;;;;;15.45;8.88;;;4.30;84.20;;;3.29;68.58;95673.44;5074314;28;20229;-78
2020/12/21 03:50:04;;;;;;;14.77;8.43;;;4.20;84.10;;;3.28;68.83;95679.56;5079592;28;20669;-79
2020/12/21 03:52:33;;;;;;;14.85;8.52;;;4.20;84.20;;;3.27;68.84;95677.97;5064408;28;20226;-79
2020/12/21 03:54:59;;;;;;;15.48;8.68;;;4.20;84.10;;;3.26;68.80;95672.88;5076419;28;20215;-79
2020/12/21 03:57:26;;;;;;;16.08;9.00;;;4.20;84.10;;;3.27;68.70;95680.56;5067753;28;20191;-79
2020/12/21 03:59:53;;;;;;;15.63;8.50;;;4.20;84.10;;;3.22;68.73;95669.72;5065496;28;20243;-79
2020/12/21 04:02:21;;;;;;;14.05;8.10;;;4.20;84.20;;;3.25;68.48;95679.00;5068672;28;20223;-79
2020/12/21 04:04:49;;;;;;;15.60;8.98;;;4.20;84.20;;;3.28;68.36;95686.53;5069628;28;20229;-80
2020/12/21 04:07:15;;;;;;;18.90;9.48;;;4.20;84.20;;;3.27;68.79;95693.50;5082333;28;20245;-79
2020/12/21 04:09:42;;;;;;;21.23;10.93;;;4.20;84.20;;;3.30;68.74;95702.81;5081223;28;20708;-79
2020/12/21 04:12:09;;;;;;;18.75;9.82;;;4.20;84.30;;;3.28;68.72;95689.13;5071005;28;20276;-78
2020/12/21 04:14:36;;;;;;;18.92;9.82;;;4.20;84.30;;;3.32;68.92;95690.53;5073347;28;20223;-78
2020/12/21 04:17:04;;;;;;;18.42;9.95;;;4.20;84.40;;;3.32;68.74;95688.75;5056206;28;20195;-78
2020/12/21 04:19:30;;;;;;;18.25;10.00;;;4.20;85.10;;;3.30;68.48;95685.47;5075879;28;20230;-78
2020/12/21 04:21:58;;;;;;;17.50;9.73;;;4.20;84.40;;;3.32;68.55;95690.53;5072469;28;20226;-79
2020/12/21 04:24:25;;;;;;;22.33;11.55;;;4.20;84.30;;;3.32;68.53;95693.09;5075056;28;20225;-78
2020/12/21 04:26:52;;;;;;;21.23;10.05;;;4.40;84.40;;;3.32;68.34;95695.69;5075660;28;20198;-78
2020/12/21 04:29:19;;;;;;;18.77;10.18;;;4.20;84.30;;;3.30;68.35;95698.44;5070011;28;20771;-79
2020/12/21 04:31:45;;;;;;;18.80;9.50;;;4.20;84.30;;;3.31;68.50;95707.84;5088160;28;20636;-78
2020/12/21 04:34:12;;;;;;;19.52;9.80;;;4.20;84.20;;;3.30;68.76;95700.22;5068291;28;20226;-78
2020/12/21 04:36:39;;;;;;;19.40;10.25;;;4.20;84.20;;;3.29;68.60;95698.56;5059118;28;20195;-79
2020/12/21 04:39:06;;;;;;;19.67;10.20;;;4.20;84.20;;;3.30;68.39;95693.25;5070569;28;20341;-79
2020/12/21 04:41:33;;;;;;;19.60;10.52;;;4.20;84.20;;;3.31;68.67;95694.09;5070193;28;20738;-79
2020/12/21 04:44:00;;;;;;;21.52;11.50;;;4.20;84.20;;;3.32;68.81;95706.06;5055798;28;20242;-80
2020/12/21 04:46:27;;;;;;;23.20;11.32;;;4.20;84.20;;;3.32;68.71;95700.88;5073890;28;20195;-80
2020/12/21 04:49:00;;;;;;;27.58;11.05;;;4.20;84.30;;;3.32;68.74;95699.13;5075637;28;20293;-79
2020/12/21 04:51:34;;;;;;;20.13;10.80;;;4.20;84.30;;;3.31;68.45;95701.88;5087939;28;20226;-78
2020/12/21 04:54:02;;;;;;;23.83;12.18;;;4.20;84.20;;;3.26;68.70;95702.25;5057183;28;20701;-79
2020/12/21 04:56:29;;;;;;;21.63;10.90;;;4.20;84.20;;;3.27;68.53;95695.28;5067778;28;20660;-79
2020/12/21 04:58:55;;;;;;;20.38;10.35;;;4.20;84.30;;;3.26;68.68;95694.47;5065254;28;20212;-80
2020/12/21 05:01:24;;;;;;;22.83;11.35;;;4.20;84.30;;;3.27;68.84;95695.28;5047505;28;20647;-80
2020/12/21 05:03:51;;;;;;;20.92;10.40;;;4.20;84.20;;;3.26;68.70;95696.22;5073738;28;20237;-80
2020/12/21 05:06:20;;;;;;;24.00;11.20;;;4.20;84.20;;;3.22;68.56;95692.25;5057493;28;20200;-79
2020/12/21 05:08:47;;;;;;;18.45;10.48;;;4.20;84.20;;;3.26;68.68;95698.81;5057074;28;20187;-80
2020/12/21 05:11:14;;;;;;;19.80;10.73;;;4.20;84.30;;;3.27;68.67;95700.44;5093449;28;20183;-80
2020/12/21 05:13:40;;;;;;;18.15;10.95;;;4.20;84.30;;;3.26;68.83;95697.06;5076540;28;20199;-79
2020/12/21 05:16:07;;;;;;;23.95;12.55;;;4.20;84.30;;;3.26;68.48;95698.81;5076182;28;20712;-79
2020/12/21 05:18:35;;;;;;;29.20;17.15;;;4.20;84.30;;;3.27;68.47;95700.44;5060152;28;20194;-80
2020/12/21 05:21:06;;;;;;;26.17;15.30;;;4.20;84.20;;;3.26;68.59;95699.66;5059735;28;20578;-80
2020/12/21 05:23:36;;;;;;;34.80;17.83;;;4.20;84.30;;;3.26;68.60;95704.00;5092937;28;20236;-80
2020/12/21 05:26:09;;;;;;;39.20;20.10;;;4.20;84.20;;;3.25;68.66;95705.78;5076768;28;20209;-79
2020/12/21 05:28:39;;;;;;;27.27;14.23;;;4.20;84.20;;;3.24;68.69;95714.50;5076332;28;20183;-80
2020/12/21 05:31:09;;;;;;;28.15;14.80;;;4.20;84.20;;;3.20;68.66;95706.16;5075923;28;20306;-79
2020/12/21 05:33:44;;;;;;;23.02;12.68;;;4.20;84.20;;;3.22;68.69;95712.97;5076659;28;20191;-79
2020/12/21 05:36:17;;;;;;;21.42;11.02;;;4.20;84.20;;;3.22;68.73;95708.59;5074136;28;20224;-79
2020/12/21 05:39:07;;;;;;;21.27;11.18;;;4.20;84.20;;;3.20;68.49;95707.94;5060042;28;20709;-79
2020/12/21 05:41:33;;;;;;;21.35;12.13;;;4.20;84.90;;;3.18;68.97;95708.03;5060028;28;20254;-80
2020/12/21 05:44:05;;;;;;;19.58;10.82;;;4.20;84.00;;;3.17;68.19;95708.16;5075822;28;20698;-80
2020/12/21 05:46:31;;;;;;;21.50;10.65;;;4.10;83.90;;;3.16;68.64;95709.94;5074549;28;20203;-80
2020/12/21 05:49:00;;;;;;;18.92;10.05;;;4.10;84.00;;;3.12;68.28;95712.91;5059658;28;20219;-79
2020/12/21 05:51:33;;;;;;;16.55;9.15;;;4.10;84.00;;;3.15;68.68;95728.19;5072553;28;20195;-79
2020/12/21 05:54:03;;;;;;;15.88;9.18;;;4.10;84.00;;;3.15;68.81;95725.59;5072501;28;20227;-79
2020/12/21 05:56:35;;;;;;;23.33;13.07;;;4.10;84.80;;;3.15;68.43;95720.44;5075481;28;20198;-80
2020/12/21 05:59:03;;;;;;;21.48;11.43;;;4.10;84.00;;;3.15;68.84;95713.50;5092457;28;20203;-80
2020/12/21 06:01:30;;;;;;;24.77;13.45;;;4.10;84.10;;;3.15;68.76;95716.06;5074380;28;20441;-79
2020/12/21 06:04:03;;;;;;;19.10;10.73;;;4.10;84.00;;;3.14;68.70;95705.84;5055390;28;20244;-79
2020/12/21 06:06:33;;;;;;;20.17;10.70;;;4.10;84.00;;;3.15;68.68;95717.84;5075377;28;20191;-80
2020/12/21 06:09:04;;;;;;;18.92;9.88;;;4.10;84.20;;;3.16;68.25;95720.31;5075826;28;20221;-79
2020/12/21 06:11:35;;;;;;;51.22;24.58;;;4.10;84.20;;;3.17;68.35;95723.72;5092658;28;20552;-80
2020/12/21 06:14:09;;;;;;;31.52;15.93;;;4.10;84.10;;;3.17;68.76;95726.31;5058769;28;20677;-80
2020/12/21 06:16:36;;;;;;;20.50;11.35;;;4.10;84.10;;;3.18;68.71;95730.56;5074797;28;20213;-79
2020/12/21 06:19:09;;;;;;;17.45;10.30;;;4.20;84.20;;;3.17;68.77;95732.34;5075539;28;20301;-79
2020/12/21 06:21:41;;;;;;;18.75;10.80;;;4.10;84.10;;;3.18;68.38;95720.19;5075222;28;20294;-80
2020/12/21 06:24:22;;;;;;;20.17;12.10;;;4.10;84.10;;;3.16;68.48;95712.53;5092365;28;20286;-79
2020/12/21 06:26:49;;;;;;;18.80;9.88;;;4.10;84.10;;;3.17;68.49;95705.56;5082380;28;20259;-79
2020/12/21 06:29:24;;;;;;;17.92;10.10;;;4.10;84.10;;;3.17;68.48;95711.59;5069635;28;20306;-80
2020/12/21 06:31:57;;;;;;;15.93;9.27;;;4.10;84.10;;;3.17;68.92;95709.00;5071505;28;20195;-80
2020/12/21 06:34:29;;;;;;;18.27;10.85;;;4.10;84.10;;;3.17;68.51;95709.00;5072006;28;20560;-80
2020/12/21 06:37:16;;;;;;;19.25;11.60;;;4.10;84.00;;;3.11;68.54;95706.09;5071850;28;20286;-80
2020/12/21 06:39:43;;;;;;;17.35;10.85;;;4.10;83.90;;;3.15;68.32;95707.47;5088996;28;20210;-81
2020/12/21 06:42:24;;;;;;;19.30;11.40;;;4.20;84.10;;;3.14;68.55;95708.44;5075164;28;20222;-80
2020/12/21 06:44:54;;;;;;;19.38;11.15;;;4.10;84.00;;;3.12;68.80;95708.53;5073914;28;20246;-80
2020/12/21 06:47:24;;;;;;;19.17;10.70;;;4.10;84.00;;;3.08;68.45;95709.75;5075269;28;20819;-80
2020/12/21 06:49:52;;;;;;;16.90;10.20;;;4.10;84.00;;;3.14;68.17;95722.22;5074914;28;20217;-81
2020/12/21 06:52:20;;;;;;;20.88;10.63;;;4.10;84.10;;;3.13;68.53;95710.19;5075033;28;20236;-81
2020/12/21 06:54:53;;;;;;;19.80;11.07;;;4.10;84.10;;;3.12;68.46;95700.75;5091742;28;20214;-80
2020/12/21 06:57:20;;;;;;;18.73;10.60;;;4.00;84.00;;;3.13;68.56;95717.97;5092156;28;20190;-80
2020/12/21 06:59:46;;;;;;;18.00;10.70;;;4.10;84.10;;;3.09;68.48;95697.59;5074474;28;20589;-80
2020/12/21 07:02:15;;;;;;;16.35;9.23;;;4.10;84.10;;;3.14;68.46;95700.66;5058310;28;20226;-80
2020/12/21 07:04:42;;;;;;;19.55;10.25;;;4.10;84.20;;;3.13;68.25;95710.19;5075179;28;20288;-81
2020/12/21 07:07:09;;;;;;;18.42;9.82;;;4.00;84.00;;;3.14;68.51;95706.66;5074604;28;20202;-80
2020/12/21 07:09:38;;;;;;;16.75;9.40;;;4.10;84.20;;;3.15;68.66;95721.25;5074899;28;20279;-80
2020/12/21 07:12:08;;;;;;;18.85;9.40;;;4.10;84.20;;;3.16;68.66;95729.84;5074942;28;20599;-80
2020/12/21 07:14:39;;;;;;;18.88;9.60;;;4.00;84.10;;;3.18;68.30;95725.38;5071033;28;20227;-80
2020/12/21 07:17:12;;;;;;;19.13;9.68;;;4.10;84.30;;;3.19;68.70;95721.84;5088359;28;20591;-80
2020/12/21 07:19:44;;;;;;;18.73;9.20;;;4.10;84.20;;;3.21;nan;95722.53;5071282;28;20221;-81
2020/12/21 07:22:13;;;;;;;18.33;10.05;;;4.10;84.40;;;3.24;68.63;95719.69;5071468;28;20579;-80
2020/12/21 07:24:41;;;;;;;17.88;10.30;;;4.10;84.30;;;3.28;68.40;95723.66;5088030;28;20309;-81
2020/12/21 07:27:09;;;;;;;18.75;10.15;;;4.10;84.30;;;3.29;68.68;95721.91;5088197;28;20207;-80
2020/12/21 07:29:39;;;;;;;18.88;10.38;;;4.20;84.40;;;3.29;68.66;95717.53;5070722;28;20231;-80
2020/12/21 07:32:08;;;;;;;17.65;9.88;;;4.20;84.30;;;3.31;68.76;95717.41;5088112;28;20253;-80
2020/12/21 07:34:36;;;;;;;18.92;10.27;;;4.20;84.40;;;3.33;68.64;95715.50;5088238;28;20788;-79
2020/12/21 07:37:12;;;;;;;20.08;10.55;;;4.20;84.40;;;3.37;68.66;95724.69;5088094;28;20710;-80
2020/12/21 07:39:39;;;;;;;21.55;11.02;;;4.20;84.30;;;3.35;68.63;95713.63;5087896;28;20222;-81
2020/12/21 07:42:12;;;;;;;20.00;10.35;;;4.20;84.40;;;3.42;68.70;95725.13;5071028;28;20223;-80
2020/12/21 07:44:52;;;;;;;17.27;9.95;;;4.20;84.40;;;3.46;68.78;95721.31;5067481;28;20581;-80
2020/12/21 07:47:34;;;;;;;16.98;10.18;;;4.30;84.40;;;3.51;68.60;95729.53;5078548;28;20255;-80
2020/12/21 07:50:02;;;;;;;19.33;9.85;;;4.30;84.50;;;3.58;68.86;95716.06;5078553;28;20210;-80
2020/12/21 07:52:29;;;;;;;18.92;10.35;;;4.30;84.70;;;3.62;68.83;95710.47;5078617;28;20613;-80
2020/12/21 07:55:01;;;;;;;20.48;10.90;;;4.40;84.90;;;3.66;68.65;95711.88;5095202;28;20237;-80
2020/12/21 07:57:30;;;;;;;22.42;10.70;;;4.40;84.90;;;3.73;68.84;95703.56;5079106;28;20194;-80
2020/12/21 07:59:58;;;;;;;22.77;11.10;;;4.50;85.00;;;3.82;68.58;95715.75;5077884;28;20241;-80
2020/12/21 08:02:27;;;;;;;22.75;11.82;;;4.50;85.00;;;3.88;69.13;95717.03;5078435;28;20309;-80
2020/12/21 08:04:54;;;;;;;34.05;12.32;;;4.50;85.00;;;3.91;68.44;95725.38;5078165;28;20306;-80
2020/12/21 08:07:28;;;;;;;76.70;12.82;;;4.60;85.00;;;3.92;68.59;95724.41;5078268;28;20198;-80
2020/12/21 08:09:55;;;;;;;24.80;11.80;;;4.60;84.80;;;3.97;68.74;95724.03;5078196;28;20214;-80
2020/12/21 08:12:22;;;;;;;42.53;18.65;;;4.70;85.00;;;4.00;68.79;95731.53;5077936;28;20289;-80
2020/12/21 08:15:00;;;;;;;35.30;16.08;;;4.70;85.00;;;4.02;68.75;95727.06;5057878;28;20326;-80
2020/12/21 08:17:29;;;;;;;32.45;13.95;;;4.80;84.90;;;4.00;68.75;95714.22;5074799;28;20581;-80
2020/12/21 08:20:01;;;;;;;35.45;14.73;;;4.80;84.90;;;4.05;68.60;95706.00;5087323;28;20207;-80
2020/12/21 08:22:30;;;;;;;29.42;12.15;;;4.80;84.80;;;4.08;68.65;95705.75;5076996;28;20673;-79
2020/12/21 08:25:11;;;;;;;31.90;13.50;;;4.80;84.80;;;4.11;68.62;95713.28;5077307;28;20211;-79
2020/12/21 08:27:50;;;;;;;34.38;15.52;;;4.90;84.70;;;4.14;68.84;95715.63;5094438;28;20194;-79
2020/12/21 08:30:18;;;;;;;34.55;14.52;;;4.90;84.90;;;4.21;68.76;95717.69;5077508;28;20206;-79
2020/12/21 08:32:48;;;;;;;27.30;13.43;;;4.90;84.90;;;4.20;68.89;95703.06;5058301;28;20677;-79
2020/12/21 08:35:27;;;;;;;29.67;14.30;;;4.90;84.80;;;4.27;68.62;95711.94;5085808;28;20684;-80
2020/12/21 08:38:14;;;;;;;24.05;11.95;;;5.00;84.80;;;4.29;68.68;95715.25;5054437;28;20198;-80
2020/12/21 08:40:52;;;;;;;23.98;12.40;;;5.00;84.80;;;4.35;68.84;95722.50;5066180;28;20314;-80
2020/12/21 08:43:19;;;;;;;25.27;12.43;;;5.10;85.00;;;4.37;68.73;95720.59;5064197;28;20626;-80
2020/12/21 08:45:46;;;;;;;24.40;11.75;;;5.10;85.00;;;4.42;68.80;95726.22;5075614;28;20309;-80
2020/12/21 08:48:13;;;;;;;28.13;13.18;;;5.10;85.00;;;4.45;68.75;95725.13;5068411;28;20243;-80
2020/12/21 08:50:41;;;;;;;23.58;12.07;;;5.20;85.00;;;4.47;68.84;95726.63;5059105;28;20219;-79
2020/12/21 08:53:08;;;;;;;23.38;12.05;;;5.20;85.00;;;4.52;68.53;95723.63;5076267;28;20226;-80
2020/12/21 08:55:35;;;;;;;25.48;12.88;;;5.20;84.90;;;4.56;68.76;95725.00;5077096;28;20218;-80
2020/12/21 08:58:01;;;;;;;22.70;11.07;;;5.30;85.00;;;4.60;68.73;95723.78;5076306;28;20191;-80
2020/12/21 09:00:28;;;;;;;21.33;11.85;;;5.30;85.00;;;4.62;68.48;95736.66;5059865;28;20253;-80
2020/12/21 09:02:56;;;;;;;21.60;11.55;;;5.30;84.90;;;4.66;68.69;95727.63;5093602;28;20299;-80
2020/12/21 09:05:23;;;;;;;20.27;11.57;;;5.30;84.90;;;4.67;68.43;95728.44;5094757;28;20797;-79
2020/12/21 09:07:49;;;;;;;23.73;12.32;;;5.30;84.80;;;4.70;68.59;95739.41;5095086;28;20191;-80
2020/12/21 09:10:16;;;;;;;25.55;13.63;;;5.40;84.90;;;4.71;68.56;95741.03;5093605;28;20626;-79
2020/12/21 09:12:43;;;;;;;25.92;13.13;;;5.40;84.80;;;4.72;68.44;95742.66;5060223;28;20276;-80
2020/12/21 09:15:10;;;;;;;28.45;13.68;;;5.50;84.80;;;4.73;68.71;95735.72;5093283;28;20308;-80
2020/12/21 09:17:37;;;;;;;35.88;14.15;;;5.50;84.70;;;4.74;68.38;95738.16;5076522;28;20237;-79
2020/12/21 09:20:04;;;;;;;26.48;12.65;;;5.50;84.70;;;4.76;68.70;95738.03;5076742;28;20597;-80
2020/12/21 09:22:31;;;;;;;26.58;13.35;;;5.50;84.60;;;4.75;68.51;95736.41;5093520;28;20215;-79
2020/12/21 09:24:57;;;;;;;27.58;13.25;;;5.50;84.70;;;4.79;68.33;95735.97;5074594;28;20642;-79
2020/12/21 09:27:28;;;;;;;35.50;13.57;;;5.50;84.70;;;4.83;68.45;95736.53;5087370;28;20613;-79
2020/12/21 09:29:54;;;;;;;28.02;13.35;;;5.60;84.80;;;4.89;68.75;95727.38;5066738;28;20637;-80
2020/12/21 09:32:21;;;;;;;25.13;13.80;;;5.60;84.90;;;4.96;68.82;95731.88;5087471;28;20186;-80
2020/12/21 09:34:48;;;;;;;24.23;12.88;;;5.60;85.00;;;5.06;68.70;95736.28;5072954;28;20247;-79
2020/12/21 09:37:15;;;;;;;24.35;13.02;;;5.70;86.00;;;5.12;68.85;95728.72;5080725;28;20653;-80
2020/12/21 09:39:42;;;;;;;25.63;12.60;;;5.70;85.20;;;5.21;68.78;95726.25;5059805;28;20223;-79
2020/12/21 09:42:09;;;;;;;22.02;11.57;;;5.80;85.20;;;5.25;68.63;95719.84;5072512;28;20234;-80
2020/12/21 09:44:36;;;;;;;23.67;12.50;;;5.80;85.10;;;5.31;68.41;95724.50;5067756;28;20233;-80
2020/12/21 09:47:02;;;;;;;24.30;12.50;;;5.90;85.10;;;5.32;68.44;95726.09;5066692;28;20595;-81
2020/12/21 09:49:29;;;;;;;23.90;13.15;;;5.90;85.00;;;5.35;68.21;95728.44;5072732;28;20234;-80
2020/12/21 09:51:56;;;;;;;26.13;13.82;;;6.00;85.00;;;5.29;68.18;95716.81;5075204;28;20195;-81
2020/12/21 09:54:23;;;;;;;26.85;14.15;;;6.00;84.80;;;5.39;68.31;95729.00;5076080;28;20249;-80
2020/12/21 09:56:50;;;;;;;26.35;14.25;;;6.00;84.80;;;5.39;68.28;95718.59;5059459;28;20202;-80
2020/12/21 09:59:17;;;;;;;25.15;13.70;;;6.10;84.70;;;5.36;68.48;95716.25;5059206;28;20746;-80
2020/12/21 10:01:44;;;;;;;25.00;13.80;;;6.10;84.70;;;5.42;68.11;95720.91;5058592;28;20264;-81
2020/12/21 10:04:11;;;;;;;26.95;13.65;;;6.10;84.60;;;5.38;68.27;95717.78;5059482;28;20310;-81
2020/12/21 10:06:38;;;;;;;27.15;14.30;;;6.10;84.50;;;5.41;68.11;95727.88;5059492;28;20199;-81
2020/12/21 10:09:05;;;;;;;21.88;12.73;;;6.10;84.40;;;5.40;68.25;95728.84;5074933;28;20297;-80
2020/12/21 10:11:32;;;;;;;26.30;13.75;;;6.10;84.30;;;5.35;67.86;95723.25;5074807;28;20206;-81
2020/12/21 10:13:59;;;;;;;26.20;14.10;;;6.10;84.20;;;5.37;68.13;95734.34;5075633;28;20223;-81
2020/12/21 10:16:26;;;;;;;22.50;13.13;;;6.10;84.20;;;5.35;68.12;95733.66;5076550;28;20203;-81
2020/12/21 10:18:53;;;;;;;24.02;12.85;;;6.10;84.20;;;5.34;68.28;95731.19;5055567;28;20268;-80
2020/12/21 10:21:19;;;;;;;30.80;16.75;;;6.10;84.20;;;5.34;67.95;95728.59;5070523;28;20215;-81
2020/12/21 10:23:46;;;;;;;42.40;22.40;;;6.10;84.20;;;5.31;67.96;95723.66;5075102;28;20194;-80
2020/12/21 10:26:13;;;;;;;34.47;19.90;;;6.10;84.10;;;5.27;68.05;95712.72;5092250;28;20209;-81
2020/12/21 10:28:40;;;;;;;27.73;15.98;;;6.20;84.20;;;5.28;67.84;95725.59;5075178;28;20205;-80
2020/12/21 10:31:06;;;;;;;24.17;13.82;;;6.00;84.10;;;5.24;67.88;95715.59;5093397;28;20198;-80